Time;durP1;ratioP1;P1;durP2;ratioP2;P2;SDS_P1;SDS_P2;PMS_P1;PMS_P2;Temp;Humidity;BMP_temperature;BMP_pressure;BME280_temperature;BME280_humidity;BME280_pressure;Samples;Min_cycle;Max_cycle;Signal;HPM_P1;HPM_P2
2023/04/09 00:00:35;;;;;;;97.18;43.80;;;10.70;99.90;;;;;;5099833;28;20051;-74
2023/04/09 00:03:01;;;;;;;95.20;43.70;;;10.80;99.90;;;;;;5099699;28;20043;-73
2023/04/09 00:05:27;;;;;;;101.53;45.78;;;10.90;99.90;;;;;;5099250;28;20494;-74
2023/04/09 00:07:53;;;;;;;95.03;42.60;;;11.00;99.90;;;;;;5099551;28;20047;-73
2023/04/09 00:10:19;;;;;;;97.25;43.20;;;10.80;99.90;;;;;;5099660;28;20093;-74
2023/04/09 00:12:44;;;;;;;92.47;44.22;;;10.80;99.90;;;;;;5098380;28;20047;-74
2023/04/09 00:15:10;;;;;;;92.75;42.35;;;10.90;99.90;;;;;;5099128;28;20081;-74
2023/04/09 00:17:36;;;;;;;96.85;42.83;;;10.90;99.90;;;;;;5099349;28;20405;-74
2023/04/09 00:20:02;;;;;;;97.28;44.80;;;10.90;99.90;;;;;;5099069;28;20418;-74
2023/04/09 00:22:29;;;;;;;93.70;42.60;;;10.90;99.90;;;;;;5099347;28;20052;-74
2023/04/09 00:24:54;;;;;;;89.32;41.50;;;10.80;99.90;;;;;;5099330;28;20032;-74
2023/04/09 00:27:20;;;;;;;90.68;41.17;;;10.80;99.90;;;;;;5098917;28;20042;-73
2023/04/09 00:29:46;;;;;;;89.38;42.08;;;10.80;99.90;;;;;;5098212;28;20056;-73
2023/04/09 00:32:12;;;;;;;86.13;39.72;;;10.90;99.90;;;;;;5099174;28;20086;-73
2023/04/09 00:34:38;;;;;;;89.85;40.30;;;10.90;99.90;;;;;;5098783;28;20457;-73
2023/04/09 00:37:04;;;;;;;74.82;35.00;;;11.00;99.90;;;;;;5098754;28;20051;-74
2023/04/09 00:39:30;;;;;;;79.78;35.90;;;10.80;99.90;;;;;;5098940;28;20040;-74
2023/04/09 00:41:57;;;;;;;77.13;33.15;;;10.70;99.90;;;;;;5099058;28;20046;-73
2023/04/09 00:44:24;;;;;;;66.97;29.63;;;10.50;99.90;;;;;;5098229;28;20051;-73
2023/04/09 00:46:50;;;;;;;65.18;30.48;;;10.40;99.90;;;;;;5098895;28;20044;-74
2023/04/09 00:49:16;;;;;;;66.50;30.73;;;10.60;99.90;;;;;;5098579;28;20425;-73
2023/04/09 00:51:44;;;;;;;68.78;31.63;;;10.70;99.90;;;;;;5097379;28;20050;-73
2023/04/09 00:54:09;;;;;;;62.45;29.10;;;10.80;99.90;;;;;;5098725;28;20040;-73
2023/04/09 00:56:37;;;;;;;61.78;30.10;;;10.80;99.90;;;;;;5097692;28;20044;-74
2023/04/09 00:59:03;;;;;;;62.92;30.50;;;10.90;99.90;;;;;;5098210;28;20048;-74
2023/04/09 01:01:28;;;;;;;67.88;31.63;;;10.90;99.90;;;;;;5098516;28;20044;-74
2023/04/09 01:03:54;;;;;;;57.53;29.83;;;10.90;99.90;;;;;;5098622;28;20032;-74
2023/04/09 01:06:44;;;;;;;61.15;29.80;;;11.00;99.90;;;;;;5098520;28;20040;-74
2023/04/09 01:09:20;;;;;;;51.72;27.73;;;11.10;99.90;;;;;;5097536;28;20456;-74
2023/04/09 01:11:55;;;;;;;58.42;28.90;;;11.20;99.90;;;;;;5098491;28;20436;-74
2023/04/09 01:14:31;;;;;;;62.10;28.48;;;11.10;99.90;;;;;;5097854;28;20047;-74
2023/04/09 01:17:05;;;;;;;58.78;27.63;;;11.10;99.90;;;;;;5098371;28;20320;-74
2023/04/09 01:19:46;;;;;;;54.42;28.00;;;11.20;99.90;;;;;;5098207;28;20044;-74
2023/04/09 01:22:32;;;;;;;50.92;26.83;;;11.20;99.90;;;;;;5097916;28;20114;-74
2023/04/09 01:25:33;;;;;;;52.63;25.70;;;11.30;99.90;;;;;;5097492;28;20134;-74
2023/04/09 01:28:26;;;;;;;50.35;25.17;;;11.30;99.90;;;;;;5093807;28;20093;-74
2023/04/09 01:30:59;;;;;;;47.80;23.40;;;11.10;99.90;;;;;;5097795;28;20424;-74
2023/04/09 01:33:27;;;;;;;51.42;25.13;;;11.10;99.90;;;;;;5098042;28;20047;-74
2023/04/09 01:35:54;;;;;;;45.25;24.60;;;11.00;99.90;;;;;;5097589;28;20425;-74
2023/04/09 01:38:21;;;;;;;53.17;24.10;;;11.10;99.90;;;;;;5097819;28;20052;-74
2023/04/09 01:40:49;;;;;;;45.92;23.77;;;11.20;99.90;;;;;;5097581;28;20393;-74
2023/04/09 01:43:15;;;;;;;41.30;23.27;;;11.20;99.90;;;;;;5097780;28;20054;-74
2023/04/09 01:45:43;;;;;;;44.95;23.48;;;11.20;99.90;;;;;;5097321;28;20043;-74
2023/04/09 01:48:09;;;;;;;43.65;22.00;;;11.20;99.90;;;;;;5097674;28;20070;-74
2023/04/09 01:50:36;;;;;;;46.25;22.80;;;11.20;99.90;;;;;;5097435;28;20036;-74
2023/04/09 01:53:02;;;;;;;45.40;23.38;;;11.10;99.90;;;;;;5097311;28;20448;-74
2023/04/09 01:55:28;;;;;;;44.38;22.38;;;11.20;99.90;;;;;;5097582;28;20044;-74
2023/04/09 01:57:53;;;;;;;48.90;23.10;;;11.20;99.90;;;;;;5097147;28;20047;-74
2023/04/09 02:00:19;;;;;;;41.97;22.48;;;11.20;99.90;;;;;;5097526;28;20051;-74
2023/04/09 02:02:47;;;;;;;43.90;22.90;;;11.30;99.90;;;;;;5097179;28;20042;-74
2023/04/09 02:05:16;;;;;;;41.35;22.02;;;11.30;99.90;;;;;;5097400;28;20055;-74
2023/04/09 02:07:49;;;;;;;44.28;22.58;;;11.10;99.90;;;;;;5097355;28;20085;-74
2023/04/09 02:10:16;;;;;;;42.65;22.35;;;11.00;99.90;;;;;;5097145;28;20058;-74
2023/04/09 02:12:47;;;;;;;46.65;21.90;;;11.00;99.90;;;;;;5097252;28;20036;-74
2023/04/09 02:15:14;;;;;;;44.20;22.40;;;11.10;99.90;;;;;;5096990;28;20329;-74
2023/04/09 02:17:40;;;;;;;41.55;22.23;;;11.10;99.90;;;;;;5097168;28;20040;-74
2023/04/09 02:20:07;;;;;;;43.15;21.08;;;11.10;99.90;;;;;;5096883;28;20093;-74
2023/04/09 02:22:32;;;;;;;43.15;22.30;;;11.10;99.90;;;;;;5097181;28;20036;-74
2023/04/09 02:24:58;;;;;;;45.40;22.58;;;11.10;99.90;;;;;;5097118;28;20314;-74
2023/04/09 02:27:24;;;;;;;41.42;22.25;;;11.10;99.90;;;;;;5097111;28;20040;-74
2023/04/09 02:29:49;;;;;;;49.30;23.38;;;11.10;99.90;;;;;;5097017;28;20032;-74
2023/04/09 02:32:15;;;;;;;45.78;22.50;;;11.10;99.90;;;;;;5096978;28;20035;-74
2023/04/09 02:34:41;;;;;;;45.42;21.88;;;11.20;99.90;;;;;;5096955;28;20040;-74
2023/04/09 02:37:06;;;;;;;40.60;21.33;;;11.10;99.90;;;;;;5097079;28;20094;-74
2023/04/09 02:39:32;;;;;;;40.53;21.35;;;11.10;99.90;;;;;;5096551;28;20032;-74
2023/04/09 02:41:58;;;;;;;41.03;21.85;;;11.10;99.90;;;;;;5096850;28;20109;-74
2023/04/09 02:44:23;;;;;;;42.70;21.63;;;11.00;99.90;;;;;;5096158;28;20043;-74
2023/04/09 02:46:51;;;;;;;47.10;23.75;;;11.00;99.90;;;;;;5096974;28;20044;-73
2023/04/09 02:49:16;;;;;;;46.35;22.52;;;10.90;99.90;;;;;;5096909;28;20043;-74
2023/04/09 02:51:42;;;;;;;46.38;23.08;;;11.00;99.90;;;;;;5096491;28;20063;-74
2023/04/09 02:54:08;;;;;;;48.05;24.95;;;11.00;99.90;;;;;;5096431;28;20040;-74
2023/04/09 02:56:33;;;;;;;46.70;24.08;;;10.90;99.90;;;;;;5095838;28;20048;-74
2023/04/09 02:58:59;;;;;;;44.85;23.13;;;10.80;99.90;;;;;;5096588;28;20318;-74
2023/04/09 03:01:25;;;;;;;49.65;23.90;;;10.80;99.90;;;;;;5096478;28;20166;-74
2023/04/09 03:03:51;;;;;;;47.30;22.85;;;10.90;99.90;;;;;;5096753;28;20032;-74
2023/04/09 03:06:17;;;;;;;51.17;25.58;;;10.90;99.90;;;;;;5096490;28;20369;-74
2023/04/09 03:08:43;;;;;;;54.25;26.67;;;10.90;99.90;;;;;;5096668;28;20051;-74
2023/04/09 03:11:09;;;;;;;54.30;26.45;;;10.90;99.90;;;;;;5096632;28;20337;-74
2023/04/09 03:13:34;;;;;;;50.15;25.23;;;10.90;99.90;;;;;;5095573;28;20051;-74
2023/04/09 03:16:00;;;;;;;47.10;23.92;;;10.90;99.90;;;;;;5099586;28;20047;-74
2023/04/09 03:18:25;;;;;;;45.85;24.35;;;10.90;99.90;;;;;;5100547;28;20465;-74
2023/04/09 03:20:51;;;;;;;44.00;23.65;;;10.90;99.90;;;;;;5100211;28;20036;-74
2023/04/09 03:23:17;;;;;;;47.17;24.02;;;10.90;99.90;;;;;;5100200;28;20028;-74
2023/04/09 03:25:42;;;;;;;43.53;22.67;;;10.80;99.90;;;;;;5100417;28;20032;-74
2023/04/09 03:28:08;;;;;;;50.78;24.73;;;10.80;99.90;;;;;;5100378;28;20036;-74
2023/04/09 03:30:34;;;;;;;46.22;23.25;;;10.80;99.90;;;;;;5099234;28;20036;-73
2023/04/09 03:32:59;;;;;;;47.65;24.10;;;10.70;99.90;;;;;;5100283;28;20036;-74
2023/04/09 03:35:25;;;;;;;47.75;25.10;;;10.70;99.90;;;;;;5098956;28;20036;-74
2023/04/09 03:37:51;;;;;;;45.47;23.88;;;10.80;99.90;;;;;;5100404;28;20040;-74
2023/04/09 03:40:17;;;;;;;49.00;24.88;;;10.80;99.90;;;;;;5100130;28;20123;-74
2023/04/09 03:42:43;;;;;;;48.15;25.05;;;10.80;99.90;;;;;;5100095;28;20123;-74
2023/04/09 03:45:08;;;;;;;48.90;24.50;;;10.80;99.90;;;;;;5099422;28;20424;-73
2023/04/09 03:47:34;;;;;;;47.17;24.73;;;10.80;99.90;;;;;;5099992;28;20093;-74
2023/04/09 03:50:00;;;;;;;45.08;24.27;;;10.90;99.90;;;;;;5099989;28;20050;-74
2023/04/09 03:52:26;;;;;;;44.55;22.65;;;10.90;99.90;;;;;;5099958;28;20068;-74
2023/04/09 03:54:52;;;;;;;51.70;24.92;;;10.90;99.90;;;;;;5099883;28;20111;-74
2023/04/09 03:57:17;;;;;;;48.28;25.42;;;10.90;99.90;;;;;;5099918;28;20040;-74
2023/04/09 03:59:44;;;;;;;49.72;23.90;;;10.90;99.90;;;;;;5099329;28;20074;-73
2023/04/09 04:02:09;;;;;;;51.78;25.15;;;10.90;99.90;;;;;;5099882;28;20352;-74
2023/04/09 04:04:35;;;;;;;45.85;24.17;;;10.90;99.90;;;;;;5098402;28;20039;-74
2023/04/09 04:07:02;;;;;;;51.70;24.85;;;10.90;99.90;;;;;;5099322;28;20164;-74
2023/04/09 04:09:28;;;;;;;48.45;24.70;;;10.90;99.90;;;;;;5099577;28;20127;-74
2023/04/09 04:11:55;;;;;;;48.00;24.67;;;10.90;99.90;;;;;;5099696;28;20067;-74
2023/04/09 04:14:20;;;;;;;47.47;25.00;;;10.80;99.90;;;;;;5099140;28;20371;-74
2023/04/09 04:16:46;;;;;;;53.00;26.15;;;10.80;99.90;;;;;;5099681;28;20040;-74
2023/04/09 04:19:12;;;;;;;49.03;26.27;;;10.80;99.90;;;;;;5099078;28;20036;-73
2023/04/09 04:21:37;;;;;;;52.30;26.50;;;10.80;99.90;;;;;;5099389;28;20156;-74
2023/04/09 04:24:03;;;;;;;47.30;24.75;;;10.80;99.90;;;;;;5099367;28;20440;-74
2023/04/09 04:26:29;;;;;;;51.35;25.98;;;10.80;99.90;;;;;;5099203;28;20303;-74
2023/04/09 04:28:54;;;;;;;52.72;26.73;;;10.90;99.90;;;;;;5098217;28;20099;-74
2023/04/09 04:31:20;;;;;;;53.10;26.38;;;10.90;99.90;;;;;;5098896;28;20040;-74
2023/04/09 04:33:46;;;;;;;50.63;25.83;;;10.90;99.90;;;;;;5099162;28;20146;-74
2023/04/09 04:36:12;;;;;;;50.17;24.65;;;10.90;99.90;;;;;;5099110;28;20059;-74
2023/04/09 04:38:40;;;;;;;49.70;24.95;;;11.00;99.90;;;;;;5099004;28;20047;-74
2023/04/09 04:41:06;;;;;;;46.47;24.77;;;10.90;99.90;;;;;;5099004;28;20036;-74
2023/04/09 04:43:32;;;;;;;53.03;26.17;;;10.90;99.90;;;;;;5098964;28;20051;-74
2023/04/09 04:45:58;;;;;;;48.95;26.27;;;10.90;99.90;;;;;;5098021;28;20111;-74
2023/04/09 04:48:24;;;;;;;52.83;24.92;;;10.90;99.90;;;;;;5098575;28;20040;-74
2023/04/09 04:51:00;;;;;;;53.25;24.63;;;11.00;99.90;;;;;;5098878;28;20032;-74
2023/04/09 04:53:26;;;;;;;;;;;11.00;99.90;;;;;;5099029;28;20089;-74
2023/04/09 04:55:52;;;;;;;52.87;25.93;;;10.90;99.90;;;;;;5098562;28;19916;-74
2023/04/09 04:58:18;;;;;;;50.90;26.48;;;10.90;99.90;;;;;;5098366;28;20088;-74
2023/04/09 05:00:44;;;;;;;46.42;24.75;;;10.90;99.90;;;;;;5098752;28;20460;-74
2023/04/09 05:03:10;;;;;;;50.15;25.98;;;10.90;99.90;;;;;;5098673;28;20028;-74
2023/04/09 05:05:36;;;;;;;47.17;25.75;;;10.90;99.90;;;;;;5098553;28;20036;-74
2023/04/09 05:08:02;;;;;;;53.20;26.42;;;10.90;99.90;;;;;;5097428;28;20039;-74
2023/04/09 05:10:27;;;;;;;45.35;24.42;;;10.80;99.90;;;;;;5098182;28;20572;-74
2023/04/09 05:12:53;;;;;;;50.65;26.05;;;10.80;99.90;;;;;;5098373;28;20047;-74
2023/04/09 05:15:19;;;;;;;51.65;26.17;;;10.80;99.90;;;;;;5097630;28;20417;-74
2023/04/09 05:17:44;;;;;;;50.13;26.65;;;10.80;99.90;;;;;;5097944;28;20032;-74
2023/04/09 05:20:10;;;;;;;55.13;26.38;;;10.80;99.90;;;;;;5098228;28;20084;-74
2023/04/09 05:22:36;;;;;;;55.88;26.90;;;10.90;99.90;;;;;;5098278;28;20424;-74
2023/04/09 05:25:02;;;;;;;61.13;28.15;;;10.90;99.90;;;;;;5098172;28;20044;-74
2023/04/09 05:27:28;;;;;;;62.92;30.70;;;10.90;99.90;;;;;;5098107;28;20039;-74
2023/04/09 05:29:54;;;;;;;51.60;27.05;;;11.00;99.90;;;;;;5098071;28;20372;-74
2023/04/09 05:32:19;;;;;;;56.67;28.65;;;10.90;99.90;;;;;;5098024;28;20314;-74
2023/04/09 05:34:46;;;;;;;57.25;28.65;;;10.90;99.90;;;;;;5097966;28;20425;-74
2023/04/09 05:37:12;;;;;;;70.25;33.90;;;10.60;99.90;;;;;;5097451;28;20040;-74
2023/04/09 05:39:37;;;;;;;60.08;29.45;;;10.60;99.90;;;;;;5097844;28;20479;-74
2023/04/09 05:42:03;;;;;;;57.28;29.92;;;10.50;99.90;;;;;;5097839;28;20040;-74
2023/04/09 05:44:29;;;;;;;61.67;30.83;;;10.60;99.90;;;;;;5097402;28;20036;-74
2023/04/09 05:46:55;;;;;;;61.30;32.05;;;10.60;99.90;;;;;;5097421;28;20036;-73
2023/04/09 05:49:21;;;;;;;51.58;26.58;;;10.60;99.90;;;;;;5097695;28;20115;-73
2023/04/09 05:51:47;;;;;;;59.97;30.63;;;10.70;99.90;;;;;;5097600;28;20163;-73
2023/04/09 05:54:12;;;;;;;57.53;29.27;;;10.70;99.90;;;;;;5097642;28;20040;-74
2023/04/09 05:56:38;;;;;;;64.28;30.48;;;10.70;99.90;;;;;;5097323;28;20089;-74
2023/04/09 05:59:03;;;;;;;58.10;30.05;;;10.80;99.90;;;;;;5096076;28;20430;-74
2023/04/09 06:01:29;;;;;;;51.28;26.98;;;10.80;99.90;;;;;;5097500;28;20092;-74
2023/04/09 06:03:55;;;;;;;54.40;25.52;;;10.80;99.90;;;;;;5097506;28;20043;-74
2023/04/09 06:06:20;;;;;;;46.80;24.02;;;10.70;99.90;;;;;;5097386;28;20137;-74
2023/04/09 06:08:46;;;;;;;44.88;23.02;;;10.50;99.90;;;;;;5097398;28;20097;-73
2023/04/09 06:11:12;;;;;;;44.53;22.42;;;10.20;99.90;;;;;;5097309;28;20133;-73
2023/04/09 06:13:39;;;;;;;44.65;22.50;;;10.10;99.90;;;;;;5096995;28;20341;-74
2023/04/09 06:16:08;;;;;;;40.50;20.85;;;10.10;99.90;;;;;;5096896;28;20040;-74
2023/04/09 06:18:35;;;;;;;41.63;20.90;;;10.20;99.90;;;;;;5096865;28;20487;-74
2023/04/09 06:21:02;;;;;;;44.40;21.95;;;10.20;99.90;;;;;;5097104;28;20040;-73
2023/04/09 06:23:28;;;;;;;42.17;21.65;;;10.30;99.90;;;;;;5097184;28;20055;-73
2023/04/09 06:25:54;;;;;;;43.30;23.13;;;10.20;99.90;;;;;;5096010;28;20040;-73
2023/04/09 06:28:20;;;;;;;42.08;20.92;;;10.20;99.90;;;;;;5096804;28;20425;-73
2023/04/09 06:30:46;;;;;;;42.00;22.60;;;10.30;99.90;;;;;;5097102;28;20093;-73
2023/04/09 06:33:12;;;;;;;40.00;21.58;;;10.30;99.90;;;;;;5096778;28;20048;-74
2023/04/09 06:35:37;;;;;;;43.88;23.85;;;10.40;99.90;;;;;;5097010;28;20044;-73
2023/04/09 06:38:03;;;;;;;40.33;20.83;;;10.30;99.90;;;;;;5096832;28;20434;-73
2023/04/09 06:40:29;;;;;;;44.53;23.33;;;10.40;99.90;;;;;;5096650;28;20040;-73
2023/04/09 06:42:55;;;;;;;46.10;23.17;;;10.50;99.90;;;;;;5096981;28;20037;-74
2023/04/09 06:45:21;;;;;;;44.33;24.00;;;10.50;99.90;;;;;;5096551;28;20036;-74
2023/04/09 06:47:47;;;;;;;44.83;23.00;;;10.50;99.90;;;;;;5096863;28;20367;-73
2023/04/09 06:50:12;;;;;;;46.17;23.52;;;10.50;99.90;;;;;;5099004;28;20040;-73
2023/04/09 06:52:38;;;;;;;43.95;22.98;;;10.50;99.90;;;;;;5101070;28;20447;-73
2023/04/09 06:55:04;;;;;;;48.55;24.23;;;10.50;99.90;;;;;;5100737;28;20109;-74
2023/04/09 06:57:30;;;;;;;44.78;24.33;;;10.50;99.90;;;;;;5100689;28;20401;-73
2023/04/09 06:59:56;;;;;;;54.90;27.85;;;10.60;99.90;;;;;;5099581;28;20048;-73
2023/04/09 07:02:21;;;;;;;52.85;26.73;;;10.60;99.90;;;;;;5100592;28;20036;-74
2023/04/09 07:04:47;;;;;;;52.50;26.27;;;10.50;99.90;;;;;;5100535;28;20043;-73
2023/04/09 07:07:13;;;;;;;53.75;28.25;;;10.50;99.90;;;;;;5100766;28;20119;-74
2023/04/09 07:09:38;;;;;;;49.25;26.67;;;10.30;99.90;;;;;;5100582;28;20135;-73
2023/04/09 07:12:04;;;;;;;53.60;25.95;;;10.40;99.90;;;;;;5100471;28;20115;-73
2023/04/09 07:14:30;;;;;;;49.08;24.55;;;10.40;99.90;;;;;;5100245;28;20036;-74
2023/04/09 07:16:55;;;;;;;49.78;25.05;;;10.50;99.90;;;;;;5100623;28;20059;-73
2023/04/09 07:19:21;;;;;;;47.20;23.90;;;10.70;99.90;;;;;;5100551;28;20040;-69
2023/04/09 07:21:47;;;;;;;51.90;24.58;;;10.70;99.90;;;;;;5100233;28;20036;-71
2023/04/09 07:24:12;;;;;;;49.47;25.02;;;10.70;99.90;;;;;;5100485;28;20036;-69
2023/04/09 07:26:38;;;;;;;52.95;26.77;;;10.60;99.90;;;;;;5100401;28;20051;-70
2023/04/09 07:29:04;;;;;;;58.92;28.48;;;10.50;99.90;;;;;;5100362;28;20483;-70
2023/04/09 07:31:30;;;;;;;57.03;27.13;;;10.60;99.90;;;;;;5100036;28;20063;-70
2023/04/09 07:33:56;;;;;;;53.97;26.75;;;10.70;99.90;;;;;;5100319;28;20115;-70
2023/04/09 07:36:21;;;;;;;55.22;28.52;;;10.70;99.90;;;;;;5100044;28;20406;-70
2023/04/09 07:38:47;;;;;;;58.28;28.70;;;10.80;99.90;;;;;;5099769;28;20051;-69
2023/04/09 07:41:13;;;;;;;57.38;27.48;;;11.00;99.90;;;;;;5099150;28;20043;-70
2023/04/09 07:43:39;;;;;;;55.78;27.25;;;10.90;99.90;;;;;;5100107;28;20040;-69
2023/04/09 07:46:05;;;;;;;51.88;26.58;;;10.90;99.90;;;;;;5099376;28;20492;-70
2023/04/09 07:48:31;;;;;;;55.42;27.52;;;10.90;99.90;;;;;;5099972;28;20127;-70
2023/04/09 07:50:57;;;;;;;52.00;26.77;;;11.10;99.90;;;;;;5099674;28;20052;-69
2023/04/09 07:53:22;;;;;;;54.65;26.85;;;11.20;99.90;;;;;;5099890;28;20044;-69
2023/04/09 07:55:50;;;;;;;54.83;27.30;;;11.10;99.90;;;;;;5098665;28;20508;-69
2023/04/09 07:58:16;;;;;;;53.50;26.65;;;11.00;99.90;;;;;;5099563;28;20050;-70
2023/04/09 08:00:41;;;;;;;54.05;24.70;;;11.10;99.90;;;;;;5099377;28;20426;-71
2023/04/09 08:03:08;;;;;;;54.05;26.20;;;11.00;99.90;;;;;;5099779;28;20303;-71
2023/04/09 08:05:35;;;;;;;52.88;25.42;;;11.10;99.90;;;;;;5099703;28;20055;-71
2023/04/09 08:08:00;;;;;;;53.08;26.17;;;11.10;99.90;;;;;;5099667;28;20036;-71
2023/04/09 08:10:26;;;;;;;57.85;26.98;;;11.20;99.90;;;;;;5099608;28;20040;-72
2023/04/09 08:12:51;;;;;;;55.15;26.58;;;11.30;99.90;;;;;;5099870;28;20040;-71
2023/04/09 08:15:17;;;;;;;50.78;25.13;;;11.30;99.90;;;;;;5099066;28;20115;-70
2023/04/09 08:17:43;;;;;;;55.20;26.27;;;11.30;99.90;;;;;;5099353;28;20036;-71
2023/04/09 08:20:09;;;;;;;50.28;25.35;;;11.20;99.90;;;;;;5099432;28;20372;-70
2023/04/09 08:22:35;;;;;;;53.47;25.65;;;11.20;99.90;;;;;;5099366;28;20129;-69
2023/04/09 08:25:01;;;;;;;50.67;25.27;;;11.30;99.90;;;;;;5099366;28;20032;-70
2023/04/09 08:27:26;;;;;;;56.70;27.00;;;11.40;99.90;;;;;;5099288;28;20032;-71
2023/04/09 08:29:52;;;;;;;49.53;25.58;;;11.60;99.90;;;;;;5099187;28;20047;-70
2023/04/09 08:32:18;;;;;;;52.78;26.85;;;11.60;99.90;;;;;;5098219;28;20122;-70
2023/04/09 08:34:43;;;;;;;55.33;26.10;;;11.60;99.90;;;;;;5098886;28;20040;-72
2023/04/09 08:37:09;;;;;;;44.72;23.70;;;11.50;99.90;;;;;;5084290;28;20044;-71
2023/04/09 08:39:35;;;;;;;49.67;24.33;;;11.50;99.90;;;;;;5098556;28;20036;-69
2023/04/09 08:42:03;;;;;;;48.53;24.70;;;11.50;99.90;;;;;;5090838;28;20037;-70
2023/04/09 08:44:29;;;;;;;52.28;25.10;;;11.60;99.90;;;;;;5093723;28;20044;-70
2023/04/09 08:46:55;;;;;;;49.13;25.38;;;11.60;99.90;;;;;;5096263;28;20115;-74
2023/04/09 08:49:21;;;;;;;49.05;24.45;;;11.50;99.90;;;;;;5096390;28;20131;-71
2023/04/09 08:51:48;;;;;;;48.08;23.90;;;11.70;99.90;;;;;;5090411;28;20036;-70
2023/04/09 08:54:16;;;;;;;43.78;24.23;;;11.70;99.90;;;;;;5080696;28;20120;-71
2023/04/09 08:56:42;;;;;;;46.15;23.42;;;11.80;99.90;;;;;;5076968;28;20052;-70
2023/04/09 08:59:08;;;;;;;43.88;22.77;;;11.90;99.90;;;;;;5077233;28;20105;-71
2023/04/09 09:01:34;;;;;;;46.65;23.75;;;12.00;99.90;;;;;;5089075;28;20048;-71
2023/04/09 09:04:00;;;;;;;47.20;24.27;;;11.90;99.90;;;;;;5101981;28;20119;-71
2023/04/09 09:06:28;;;;;;;39.90;21.25;;;12.10;99.90;;;;;;5096840;28;20065;-71
2023/04/09 09:09:10;;;;;;;49.17;25.17;;;12.30;99.90;;;;;;5093852;28;20107;-71
2023/04/09 09:11:44;;;;;;;46.20;23.30;;;12.20;99.90;;;;;;5076714;28;20360;-71
2023/04/09 09:14:13;;;;;;;40.22;21.15;;;12.20;99.90;;;;;;5081642;28;20112;-72
2023/04/09 09:16:43;;;;;;;46.20;24.15;;;12.10;99.90;;;;;;5089852;28;20337;-71
2023/04/09 09:19:24;;;;;;;43.58;22.65;;;12.20;99.90;;;;;;5094084;28;20039;-72
2023/04/09 09:22:02;;;;;;;48.08;24.25;;;12.20;99.90;;;;;;5081695;28;20040;-72
2023/04/09 09:24:28;;;;;;;46.88;23.83;;;12.30;99.90;;;;;;5076904;28;20086;-70
2023/04/09 09:26:56;;;;;;;46.55;24.23;;;12.50;99.90;;;;;;5077868;28;20107;-70
2023/04/09 09:29:21;;;;;;;53.88;26.42;;;12.50;99.90;;;;;;5077769;28;20120;-71
2023/04/09 09:31:52;;;;;;;43.80;24.00;;;12.50;99.90;;;;;;5077496;28;20124;-71
2023/04/09 09:34:20;;;;;;;51.15;26.65;;;12.60;99.90;;;;;;5077735;28;20036;-71
2023/04/09 09:36:46;;;;;;;47.22;25.10;;;12.60;99.90;;;;;;5077643;28;20128;-71
2023/04/09 09:39:13;;;;;;;46.08;25.52;;;12.70;99.90;;;;;;5077525;28;20040;-71
2023/04/09 09:41:40;;;;;;;43.08;22.83;;;12.80;99.90;;;;;;5077684;28;20094;-71
2023/04/09 09:44:07;;;;;;;45.63;24.83;;;13.00;99.90;;;;;;5079241;28;20482;-77
2023/04/09 09:46:35;;;;;;;48.60;25.50;;;13.20;99.90;;;;;;5083440;28;20075;-71
2023/04/09 09:49:01;;;;;;;48.28;25.02;;;13.10;99.90;;;;;;5086064;28;20040;-72
2023/04/09 09:51:30;;;;;;;48.20;25.33;;;13.00;99.90;;;;;;5097145;28;20424;-72
2023/04/09 09:53:56;;;;;;;42.22;24.45;;;12.90;99.90;;;;;;5080957;28;20119;-71
2023/04/09 09:56:25;;;;;;;49.05;25.70;;;12.90;99.90;;;;;;5091115;28;20043;-72
2023/04/09 09:59:09;;;;;;;46.10;24.33;;;12.80;99.90;;;;;;5091663;28;20052;-72
2023/04/09 10:01:36;;;;;;;45.58;25.15;;;13.00;99.90;;;;;;5096130;28;20522;-72
2023/04/09 10:04:05;;;;;;;43.10;23.88;;;13.00;99.90;;;;;;5095650;28;20040;-71
2023/04/09 10:06:37;;;;;;;52.00;26.27;;;13.10;99.90;;;;;;5096354;28;20031;-71
2023/04/09 10:09:05;;;;;;;46.03;25.20;;;13.30;99.90;;;;;;5096075;28;20048;-72
2023/04/09 10:11:34;;;;;;;46.00;23.95;;;13.50;99.90;;;;;;5096028;28;20044;-71
2023/04/09 10:14:00;;;;;;;50.28;26.38;;;13.60;99.90;;;;;;5097259;28;20044;-71
2023/04/09 10:16:27;;;;;;;43.17;24.65;;;13.70;99.90;;;;;;5096913;28;20069;-71
2023/04/09 10:18:57;;;;;;;41.47;23.88;;;13.70;99.90;;;;;;5097230;28;20123;-72
2023/04/09 10:21:49;;;;;;;40.35;22.20;;;13.90;99.90;;;;;;5096911;28;20035;-71
2023/04/09 10:24:15;;;;;;;38.47;22.58;;;14.40;99.90;;;;;;5096776;28;20036;-68
2023/04/09 10:26:43;;;;;;;42.67;23.95;;;14.60;99.90;;;;;;5096897;28;20437;-77
2023/04/09 10:29:13;;;;;;;36.70;22.05;;;14.80;99.90;;;;;;5096017;28;20032;-71
2023/04/09 10:31:52;;;;;;;43.10;23.50;;;14.90;99.90;;;;;;5096804;28;20083;-72
2023/04/09 10:34:26;;;;;;;40.90;24.15;;;14.50;99.90;;;;;;5096794;28;20506;-78
2023/04/09 10:36:56;;;;;;;42.50;23.90;;;14.60;99.90;;;;;;5095929;28;20394;-71
2023/04/09 10:39:30;;;;;;;40.45;22.92;;;14.60;99.90;;;;;;5096953;28;20093;-71
2023/04/09 10:41:58;;;;;;;41.90;23.80;;;14.60;99.90;;;;;;5096992;28;20134;-72
2023/04/09 10:44:26;;;;;;;39.83;23.00;;;14.60;99.90;;;;;;5096581;28;20062;-72
2023/04/09 10:46:55;;;;;;;43.58;23.48;;;14.50;99.90;;;;;;5095582;28;20425;-71
2023/04/09 10:49:26;;;;;;;42.03;23.23;;;14.30;99.90;;;;;;5096694;28;20083;-70
2023/04/09 10:52:03;;;;;;;42.70;24.70;;;13.90;99.90;;;;;;5096580;28;20044;-71
2023/04/09 10:54:34;;;;;;;42.53;23.55;;;13.80;99.90;;;;;;5095635;28;20051;-72
2023/04/09 10:57:06;;;;;;;44.03;23.67;;;13.80;99.90;;;;;;5096775;28;20044;-70
2023/04/09 10:59:32;;;;;;;45.22;24.65;;;14.00;99.90;;;;;;5095336;28;20048;-70
2023/04/09 11:01:58;;;;;;;42.72;24.13;;;14.20;99.90;;;;;;5097115;28;20085;-69
2023/04/09 11:04:49;;;;;;;41.53;23.40;;;14.30;99.90;;;;;;5096766;28;20032;-71
2023/04/09 11:07:16;;;;;;;38.17;22.65;;;14.40;99.90;;;;;;5096030;28;20063;-71
2023/04/09 11:09:42;;;;;;;39.22;23.25;;;14.30;99.90;;;;;;5096566;28;20044;-71
2023/04/09 11:12:10;;;;;;;41.33;23.02;;;14.40;99.90;;;;;;5078480;28;20067;-71
2023/04/09 11:14:36;;;;;;;42.63;23.95;;;14.40;99.90;;;;;;5096002;28;20441;-71
2023/04/09 11:17:02;;;;;;;38.78;22.67;;;14.60;99.90;;;;;;5096621;28;20086;-71
2023/04/09 11:19:28;;;;;;;40.63;22.25;;;14.60;99.90;;;;;;5096491;28;20051;-72
2023/04/09 11:21:55;;;;;;;43.47;23.60;;;14.70;99.90;;;;;;5096242;28;20032;-71
2023/04/09 11:24:21;;;;;;;40.22;21.92;;;14.70;99.90;;;;;;5095624;28;20075;-72
2023/04/09 11:26:48;;;;;;;35.13;21.58;;;14.80;99.90;;;;;;5096568;28;20107;-70
2023/04/09 11:29:13;;;;;;;40.08;23.38;;;14.80;99.90;;;;;;5096469;28;20036;-70
2023/04/09 11:31:43;;;;;;;39.28;23.27;;;14.90;99.90;;;;;;5095349;28;20063;-70
2023/04/09 11:34:11;;;;;;;41.10;23.25;;;15.00;99.90;;;;;;5096334;28;20052;-70
2023/04/09 11:36:37;;;;;;;37.28;21.80;;;15.20;99.90;;;;;;5099312;28;20118;-70
2023/04/09 11:39:03;;;;;;;36.22;22.23;;;15.20;99.90;;;;;;5100325;28;20131;-70
2023/04/09 11:41:36;;;;;;;35.60;21.38;;;15.40;99.90;;;;;;5100182;28;20044;-71
2023/04/09 11:44:03;;;;;;;40.65;22.42;;;15.60;99.90;;;;;;5099940;28;20089;-70
2023/04/09 11:46:32;;;;;;;39.78;22.65;;;15.80;99.90;;;;;;5099511;28;20471;-70
2023/04/09 11:48:58;;;;;;;37.15;21.88;;;15.70;99.90;;;;;;5100322;28;20052;-70
2023/04/09 11:51:26;;;;;;;36.22;20.73;;;15.80;99.90;;;;;;5099965;28;20036;-70
2023/04/09 11:53:52;;;;;;;36.17;20.67;;;16.00;99.90;;;;;;5099990;28;20100;-70
2023/04/09 11:56:17;;;;;;;39.03;21.70;;;16.20;99.90;;;;;;5099953;28;20040;-70
2023/04/09 11:58:47;;;;;;;38.67;21.70;;;16.10;99.90;;;;;;5099548;28;20491;-70
2023/04/09 12:01:15;;;;;;;31.75;20.23;;;16.00;99.90;;;;;;5099833;28;20036;-70
2023/04/09 12:03:40;;;;;;;33.70;20.40;;;16.20;99.90;;;;;;5099516;28;20047;-71
2023/04/09 12:06:08;;;;;;;33.83;20.08;;;16.20;99.90;;;;;;5100334;28;20032;-70
2023/04/09 12:08:35;;;;;;;38.20;21.10;;;16.00;99.90;;;;;;5099720;28;20040;-70
2023/04/09 12:11:08;;;;;;;33.03;19.80;;;15.90;99.90;;;;;;5099607;28;20050;-70
2023/04/09 12:13:34;;;;;;;35.42;21.20;;;15.90;99.90;;;;;;5098987;28;20047;-73
2023/04/09 12:16:02;;;;;;;32.90;20.55;;;16.60;99.90;;;;;;5118670;28;20039;-71
2023/04/09 12:18:27;;;;;;;33.53;19.73;;;16.80;99.90;;;;;;5119754;28;20135;-70
2023/04/09 12:20:53;;;;;;;35.10;19.95;;;16.70;99.90;;;;;;5119830;28;20064;-71
2023/04/09 12:23:19;;;;;;;31.90;19.20;;;16.70;99.90;;;;;;5119539;28;20039;-70
2023/04/09 12:25:46;;;;;;;31.25;18.30;;;16.50;99.90;;;;;;5119697;28;20039;-70
2023/04/09 12:28:14;;;;;;;31.17;19.10;;;16.50;99.90;;;;;;5119444;28;20043;-71